Aérodrome :
LOGIN :

S'inscrire | Disclaimer

   EN    FR    IT 

 










Légende :    VFR   VFR Marginal   IFR   IFR Intensif   IFR Très Intensif
Visi : 
Plafond : 
>= 8 km
>= 3000ft
5 à 8 km
1000 à 3000 ft
1500m à 5 km
500 à 1000 ft
800 à 1500m
200 à 500 ft
< 800m
< 200 ft
Symboles :   Orages  Brouillard  Fortes neiges  Fortes précipitations  Vent > 20 kt
SIGMETs :   Divers  Orages  Givrage  Turbulence  Onde Orograph.  Cendres Volcan.






- Altitude de l'aérodrome : 84 ft


LFBC - Cazaux

DERNIER METAR :
  • 281400Z AUTO 24010KT 210V290 9999 FEW025 BKN031 BKN038 18/13 Q1020

METARs EXPIRÉS :
  • 281330Z AUTO 24011KT 210V280 9999 BKN029 BKN036 OVC064 18/12 Q1020 TEMPO BKN014
  • 281300Z AUTO 24010KT 200V280 9999 FEW028 BKN064 18/12 Q1020 TEMPO BKN014
  • 281230Z AUTO 23011KT 200V270 9999 SCT023 BKN030 BKN039 17/13 Q1020 TEMPO BKN014
  • 281200Z AUTO 23010KT 200V260 9999 BKN020 BKN028 BKN070 17/13 Q1020 TEMPO BKN014
  • 281130Z AUTO 23010KT 9999 BKN018 BKN025 BKN072 17/14 Q1020 TEMPO BKN014

TAF TAF LFBC
Valide du 28 à 09h jusqu'au 29 à 09h UTC


280800Z 2809/2909 25010KT 9999 FEW015 BKN050
TEMPO 2809/2909 BKN014
BECMG 2907/2908 17005KT



MET'MAP, la Météo Aéronautique d'un coup d'oeil ! - Copyright ORBIFLY Décembre 2007 - Disclaimer

ORBIFLY MET'MAP TEAM :

Programmation & Développement : Alexandra Zaïnal
Sur une idée originale de : Baudouin d'Aumeries
Assistance à la programmation : Marc-Olivier Méhu
Soutien technique & logistique : Manuel Goepfert

Contact : metmap@orbifly.com




SOURCES & CREDITS :

   NOAA